Welcome to our new website - Welkom op onze vernieuwde website - Bienvenue sur notre nouveau site web - Willkommen auf unserer neuen Website
Check our progress frequently. Prüfen Sie unsere Fortschritte regelmäßig. Consultez notre progression fréquemment. Komt u straks nog eens terug
Het weer levert geen direct gevaar op.    Er zijn geen waarschuwingen afgegeven.

Regen radar Meer informatie rain snow radar


Bezoek ook deze websites:

Template documentation
and downloads

And another site


U vindt ons ook hier:

UK Metoffice

WeatherCloud

Weather Underground

AWEKAS


METAR rapporten vliegvelden

   
EBBR - Brussels International Airport, Belgium
Afstand tot: W 14 km
Gewijzigd: 17-09-2019 00:50
Grotendeels bewolkt  
Grotendeels bewolkt  
   Wind: NNO 9 km/h
Wind: NNO 9 km/h
Temperatuur: 15°C
Dauwpunt: 12°C
Vochtigheid: 82%
Barometer: 1022 hPa
Bewolking: Grotendeels bewolkt
Zicht: meer dan 10 km
Bewolking: Grotendeels bewolkt 2900 ft
EBBR 162250Z 02005KT 9999 BKN029 15/12 Q1022 NOSIG
EBBE - Beauvechain (Bevekom), Belgium
Afstand tot: ZZO 17 km
Gewijzigd: 17-09-2019 00:55
Nevel, Bewolking  
Nevel, Bewolking  
   Wind: NNW 9 km/h
Wind: NNW 9 km/h
Temperatuur: 15°C
Dauwpunt: 14°C
Vochtigheid: 94%
Barometer: 1022 hPa
Bewolking: Bewolking
Zicht: 5 km
Bewolking: Licht bewolkt 600 ft,
Grotendeels bewolkt 2100 ft,
Bewolking 2500 ft
EBBE 162255Z AUTO 34005KT 4600 BR FEW006/// BKN021/// OVC025/// 15/14 Q1022 GRN
EBDT - Schaffen, Belgium
Afstand tot: ONO 29 km
Gewijzigd: 17-09-2019 01:13
Nevel, Grotendeels bewolkt  
Nevel, Grotendeels bewolkt  
   Wind: NW 7 km/h
Wind: NW 7 km/h
Temperatuur: 14°C
Dauwpunt: 13°C
Vochtigheid: 94%
Barometer: 1022 hPa
Bewolking: Grotendeels bewolkt
Zicht: 4 km
Bewolking: Licht bewolkt 2200 ft,
Gedeeltelijk bewolkt 2700 ft,
Grotendeels bewolkt 3900 ft
EBDT 162313Z AUTO 31004KT 3600 BR FEW022/// SCT027/// BKN039/// 14/13 Q1022 YLO
EBAW - Antwerp/Deurne, Belgium
Afstand tot: NNW 38 km
Gewijzigd: 17-09-2019 00:50
Bewolking  
Bewolking  
   Wind: Noorden 9 km/h
Wind: Noorden 9 km/h
Temperatuur: 15°C
Dauwpunt: 11°C
Vochtigheid: 77%
Barometer: 1022 hPa
Bewolking: Bewolking
Zicht: meer dan 10 km
Bewolking: Bewolking 3000 ft
EBAW 162250Z AUTO 35005KT 320V020 9999 // OVC030/// 15/11 Q1022
EBCI - Charleroi/Gosselies, Belgium
Afstand tot: ZZW 51 km
Gewijzigd: 17-09-2019 00:50
Nevel, Grotendeels bewolkt  
Nevel, Grotendeels bewolkt  
   Wind: Noorden 6 km/h
Wind: Noorden 6 km/h
Temperatuur: 14°C
Dauwpunt: 14°C
Vochtigheid: 100%
Barometer: 1022 hPa
Bewolking: Grotendeels bewolkt
Zicht: 5 km
Bewolking: Licht bewolkt 1000 ft,
Grotendeels bewolkt 2000 ft
EBCI 162250Z 01003KT 4500 BR FEW010 BKN020 14/14 Q1022 NOSIG
EBLG - Bierset/Liege, Belgium
Afstand tot: OZO 60 km
Gewijzigd: 17-09-2019 00:50
Nevel, Grotendeels bewolkt  
Nevel, Grotendeels bewolkt  
   Wind: Noorden 4 km/h
Wind: Noorden 4 km/h
Temperatuur: 14°C
Dauwpunt: 13°C
Vochtigheid: 94%
Barometer: 1021 hPa
Bewolking: Grotendeels bewolkt
Zicht: 3 km
Bewolking: Gedeeltelijk bewolkt 500 ft,
Grotendeels bewolkt 2200 ft
EBLG 162250Z 35002KT 3300 BR SCT005 BKN022 14/13 Q1021 TEMPO BKN005

Script ontwikkeld door  Saratoga-weather.org Aangepast voor de template door  Weerstation Leuven

Apparatuur in gebruik:

Weerstation
Davis Vantage Pro2

Weerprogramma
Meteobridge

Weercomputer
TP-Link TL-MR3020

Webleverancier
One.com

Davis Vantage Pro2

Meteobridge

TP-Link TL-MR3020

One.com